Portada
METAR-TAF:

METAR-TAF

Aeropuertos :

Bugía, Argelia

latitud: 36-43N, longitud: 005-04E, altitud: 2 m

Observación

El informe se hizo hace 1 hora y 33 minutos, a las 14:00 UTC
Viento 9 kt del este
Temperatura 27°C
Humedad 51%
Presión 1016 hPa
Visibilidad 10 km o más
sin nubes por debajo de 1500 m y sin presencia de cumulonimbus.

METAR: DAAE 201400Z 09009KT CAVOK 27/16 Q1016

Hora: 16:33 (15:33 UTC)

Pronóstico

El informe se hizo hace 4 horas y 33 minutos, a las 11:00 UTC
Pronóstico válido del 20 a las 12 UTC al 21 a las 12 UTC
Viento 8 kt del este-sureste
Visibilidad 10 km o más
sin nubes por debajo de 1500 m y sin presencia de cumulonimbus.
Probabilidad 40% :
Temporalmente
del 20 a las 12 UTC al 20 a las 18 UTC
Escasas nubes a una altura de 3000 ft, Cumulonimbus.
Evolucionando progresivamente
del 20 a las 19 UTC al 20 a las 22 UTC
Viento 6 kt del oeste-suroeste

TAF: DAAE 201100Z 2012/2112 11008KT CAVOK PROB40 TEMPO 2012/2018 FEW030CB BECMG 2019/2022 24006KT

Observaciones y pronósticos meteorológicos de más de 4000 aeropuertos (mensajes METAR y TAF).

Los puntos amarillos y rojos representan las estaciones disponibles.

Ponga el ratón en el punto deseado para ver el nombre de la estación.

Haga clic para ver las observaciones y los pronósticos meteorológicos.

Para cambiar el mapa : haga clic en los botones verdes con una cruz de color negro para hacer un zoom, en el botón verde con un guión para alejar o en las flechas verdes para mapas adyacentes.


METAR-TAF: